Time;durP1;ratioP1;P1;durP2;ratioP2;P2;SDS_P1;SDS_P2;PMS_P1;PMS_P2;Temp;Humidity;BMP_temperature;BMP_pressure;BME280_temperature;BME280_humidity;BME280_pressure;Samples;Min_cycle;Max_cycle;Signal;HPM_P1;HPM_P2
2023/12/09 00:00:56;;;;;;;55.13;18.10;;;;;;;;;;5102039;28;20075;-91
2023/12/09 00:03:29;;;;;;;54.50;17.50;;;;;;;;;;5088184;28;20438;-90
2023/12/09 00:06:10;;;;;;;51.25;17.08;;;;;;;;;;5087097;28;20033;-91
2023/12/09 00:08:54;;;;;;;62.83;19.00;;;;;;;;;;5088355;28;20044;-90
2023/12/09 00:11:31;;;;;;;58.22;17.98;;;;;;;;;;5089327;28;20124;-91
2023/12/09 00:14:11;;;;;;;55.92;16.25;;;;;;;;;;5089451;28;20219;-91
2023/12/09 00:16:40;;;;;;;54.65;16.48;;;;;;;;;;5091425;28;20126;-90
2023/12/09 00:19:21;;;;;;;67.45;18.65;;;;;;;;;;5085573;28;20048;-91
2023/12/09 00:21:50;;;;;;;65.10;16.73;;;;;;;;;;5089608;28;20064;-90
2023/12/09 00:24:18;;;;;;;58.88;17.67;;;;;;;;;;5093513;28;20108;-91
2023/12/09 00:26:58;;;;;;;47.85;15.88;;;;;;;;;;5109493;28;20041;-91
2023/12/09 00:29:43;;;;;;;64.00;16.80;;;;;;;;;;5095175;28;20076;-91
2023/12/09 00:32:14;;;;;;;53.28;16.35;;;;;;;;;;5088445;28;20100;-91
2023/12/09 00:34:44;;;;;;;45.30;16.02;;;;;;;;;;5089365;28;20129;-91
2023/12/09 00:37:24;;;;;;;45.97;15.65;;;;;;;;;;5089928;28;20056;-89
2023/12/09 00:39:56;;;;;;;53.83;15.18;;;;;;;;;;5104428;28;20116;-90
2023/12/09 00:42:26;;;;;;;43.53;14.93;;;;;;;;;;5107734;28;20052;-91
2023/12/09 00:44:58;;;;;;;51.17;16.60;;;;;;;;;;5109997;28;20416;-91
2023/12/09 00:47:31;;;;;;;62.42;18.35;;;;;;;;;;5091337;28;20055;-91
2023/12/09 00:50:01;;;;;;;48.05;16.58;;;;;;;;;;5089486;28;20048;-90
2023/12/09 00:52:45;;;;;;;55.83;16.50;;;;;;;;;;5088307;28;20080;-91
2023/12/09 00:55:26;;;;;;;55.72;17.88;;;;;;;;;;5086135;28;20052;-91
2023/12/09 00:58:07;;;;;;;58.45;18.27;;;;;;;;;;5087833;28;20047;-90
2023/12/09 01:00:36;;;;;;;59.00;14.93;;;;;;;;;;5087826;28;20104;-91
2023/12/09 01:03:31;;;;;;;38.28;15.55;;;;;;;;;;5086768;28;20056;-89
2023/12/09 01:06:03;;;;;;;54.53;17.90;;;;;;;;;;5087912;28;20080;-89
2023/12/09 01:08:44;;;;;;;52.67;15.88;;;;;;;;;;5083842;28;20048;-89
2023/12/09 01:11:27;;;;;;;43.13;14.63;;;;;;;;;;5089446;28;20036;-90
2023/12/09 01:14:12;;;;;;;52.97;18.15;;;;;;;;;;5087887;28;20056;-88
2023/12/09 01:16:52;;;;;;;50.75;17.23;;;;;;;;;;5100662;28;20060;-89
2023/12/09 01:19:27;;;;;;;48.78;16.30;;;;;;;;;;5085445;28;20067;-89
2023/12/09 01:22:09;;;;;;;51.00;17.40;;;;;;;;;;5083253;28;20044;-89
2023/12/09 01:24:54;;;;;;;55.60;15.80;;;;;;;;;;5075021;28;20052;-89
2023/12/09 01:27:34;;;;;;;65.95;18.88;;;;;;;;;;5085319;28;20122;-89
2023/12/09 01:35:47;;;;;;;73.60;19.55;;;;;;;;;;5067993;28;20055;-88
2023/12/09 01:38:18;;;;;;;67.07;20.10;;;;;;;;;;5049775;28;20045;-89
2023/12/09 01:41:02;;;;;;;67.72;19.15;;;;;;;;;;5045848;28;20360;-90
2023/12/09 01:54:10;;;;;;;60.75;19.08;;;;;;;;;;5094876;28;20516;-89
2023/12/09 01:56:54;;;;;;;62.85;19.10;;;;;;;;;;5096430;28;20039;-89
2023/12/09 01:59:36;;;;;;;55.92;18.60;;;;;;;;;;5095049;28;20029;-89
2023/12/09 02:02:06;;;;;;;71.57;20.08;;;;;;;;;;5108343;22;20040;-89
2023/12/09 02:04:48;;;;;;;63.20;20.52;;;;;;;;;;5093747;28;20070;-90
2023/12/09 02:07:29;;;;;;;79.05;20.58;;;;;;;;;;5095023;28;20056;-89
2023/12/09 02:10:16;;;;;;;71.57;21.02;;;;;;;;;;5093959;28;20044;-88
2023/12/09 02:13:03;;;;;;;68.70;20.58;;;;;;;;;;5093596;28;20082;-89
2023/12/09 02:15:58;;;;;;;55.95;18.42;;;;;;;;;;5077963;28;20040;-88
2023/12/09 02:18:44;;;;;;;53.58;20.10;;;;;;;;;;5124927;22;20056;-90
2023/12/09 02:21:29;;;;;;;61.50;19.10;;;;;;;;;;5066214;28;20040;-89
2023/12/09 02:24:10;;;;;;;58.35;21.48;;;;;;;;;;5064326;28;20095;-89
2023/12/09 02:26:57;;;;;;;57.85;19.98;;;;;;;;;;5069597;28;20049;-88
2023/12/09 02:29:53;;;;;;;60.55;18.67;;;;;;;;;;5069184;28;20040;-89
2023/12/09 02:32:37;;;;;;;65.40;20.55;;;;;;;;;;5064375;28;20044;-89
2023/12/09 02:35:22;;;;;;;67.75;21.00;;;;;;;;;;5065136;28;20078;-90
2023/12/09 02:38:03;;;;;;;62.35;18.40;;;;;;;;;;5055966;28;20048;-88
2023/12/09 02:45:57;;;;;;;54.03;19.63;;;;;;;;;;5413928;22;20122;-90
2023/12/09 02:52:07;;;;;;;69.28;20.02;;;;;;;;;;5084474;28;20184;-89
2023/12/09 02:54:48;;;;;;;65.75;19.23;;;;;;;;;;5069259;28;20056;-89
2023/12/09 03:05:12;;;;;;;71.90;21.75;;;;;;;;;;5063139;28;20052;-88
2023/12/09 03:07:56;;;;;;;71.82;22.65;;;;;;;;;;5062433;28;20057;-91
2023/12/09 03:10:37;;;;;;;57.85;18.95;;;;;;;;;;5064686;28;20060;-88
2023/12/09 03:13:07;;;;;;;63.53;19.55;;;;;;;;;;5063729;28;20060;-89
2023/12/09 03:15:40;;;;;;;60.20;20.38;;;;;;;;;;5063667;28;20048;-89
2023/12/09 03:18:16;;;;;;;70.90;22.38;;;;;;;;;;5063308;28;20053;-89
2023/12/09 03:20:57;;;;;;;66.28;21.27;;;;;;;;;;5061775;28;20064;-90
2023/12/09 03:23:37;;;;;;;58.80;21.77;;;;;;;;;;5062690;28;20041;-90
2023/12/09 03:26:13;;;;;;;74.43;22.60;;;;;;;;;;5063987;28;20201;-90
2023/12/09 03:40:02;;;;;;;69.63;23.53;;;;;;;;;;5092604;22;20308;-90
2023/12/09 03:42:42;;;;;;;62.28;22.00;;;;;;;;;;5089922;28;20048;-90
2023/12/09 03:45:24;;;;;;;59.17;21.70;;;;;;;;;;5087531;28;20072;-89
2023/12/09 03:48:08;;;;;;;64.45;21.70;;;;;;;;;;5085578;28;20049;-89
2023/12/09 03:50:49;;;;;;;62.88;21.42;;;;;;;;;;5086150;28;20055;-89
2023/12/09 03:53:33;;;;;;;74.07;22.48;;;;;;;;;;5084487;28;20040;-89
2023/12/09 03:56:16;;;;;;;60.30;20.30;;;;;;;;;;5083680;28;20051;-89
2023/12/09 03:59:00;;;;;;;65.70;20.98;;;;;;;;;;5082273;28;20056;-89
2023/12/09 04:01:47;;;;;;;64.47;21.23;;;;;;;;;;5075838;28;20056;-89
2023/12/09 04:04:17;;;;;;;63.90;19.83;;;;;;;;;;5084933;28;20056;-90
2023/12/09 04:06:58;;;;;;;59.03;20.27;;;;;;;;;;5078928;28;20371;-89
2023/12/09 04:09:30;;;;;;;58.25;21.33;;;;;;;;;;5087431;28;20048;-89
2023/12/09 04:12:10;;;;;;;61.20;22.13;;;;;;;;;;5069915;28;20041;-89
2023/12/09 04:14:52;;;;;;;60.97;20.05;;;;;;;;;;5086905;28;20110;-91
2023/12/09 04:17:32;;;;;;;52.15;18.92;;;;;;;;;;5090318;28;20147;-91
2023/12/09 04:20:13;;;;;;;53.05;20.80;;;;;;;;;;5085509;28;20212;-89
2023/12/09 04:22:50;;;;;;;60.72;19.45;;;;;;;;;;5087277;28;20071;-91
2023/12/09 04:25:32;;;;;;;52.25;17.95;;;;;;;;;;5086934;28;20431;-91
2023/12/09 04:28:02;;;;;;;54.58;20.77;;;;;;;;;;5089656;28;20053;-90
2023/12/09 04:30:35;;;;;;;53.42;18.98;;;;;;;;;;5090107;28;20032;-91
2023/12/09 04:33:05;;;;;;;69.97;23.25;;;;;;;;;;5088327;28;20056;-91
2023/12/09 04:35:37;;;;;;;58.78;19.70;;;;;;;;;;5088161;28;20355;-91
2023/12/09 04:38:08;;;;;;;48.15;19.55;;;;;;;;;;5087551;28;20257;-91
2023/12/09 04:40:49;;;;;;;56.75;18.95;;;;;;;;;;5086074;28;20044;-89
2023/12/09 04:43:27;;;;;;;56.72;19.30;;;;;;;;;;5089309;28;20292;-91
2023/12/09 04:46:01;;;;;;;69.65;21.27;;;;;;;;;;5088588;28;20082;-91
2023/12/09 04:48:43;;;;;;;59.72;19.52;;;;;;;;;;5087468;28;20048;-91
2023/12/09 04:51:58;;;;;;;42.65;17.92;;;;;;;;;;5124941;27;20404;-90
2023/12/09 04:54:29;;;;;;;55.42;19.00;;;;;;;;;;5107306;28;20059;-91
2023/12/09 04:57:10;;;;;;;47.83;19.55;;;;;;;;;;5108054;28;20130;-91
2023/12/09 04:59:40;;;;;;;51.33;18.63;;;;;;;;;;5129377;28;20499;-91
2023/12/09 05:02:10;;;;;;;46.47;17.42;;;;;;;;;;5109462;28;20103;-91
2023/12/09 05:04:44;;;;;;;51.50;19.17;;;;;;;;;;5123748;28;20051;-91
2023/12/09 05:07:26;;;;;;;48.92;17.40;;;;;;;;;;5108468;28;20131;-91
2023/12/09 05:09:58;;;;;;;48.20;18.23;;;;;;;;;;5124331;28;20107;-90
2023/12/09 05:12:26;;;;;;;56.45;18.15;;;;;;;;;;5124503;28;20133;-91
2023/12/09 05:15:10;;;;;;;47.03;18.27;;;;;;;;;;5106511;28;20034;-91
2023/12/09 05:17:51;;;;;;;48.90;17.70;;;;;;;;;;5106926;28;20052;-90
2023/12/09 05:20:24;;;;;;;45.45;15.98;;;;;;;;;;5109291;28;20048;-91
2023/12/09 05:23:01;;;;;;;50.28;20.08;;;;;;;;;;5108573;28;20047;-90
2023/12/09 05:25:38;;;;;;;48.22;18.55;;;;;;;;;;5108237;28;20090;-90
2023/12/09 05:28:19;;;;;;;44.33;17.05;;;;;;;;;;5107217;28;20109;-90
2023/12/09 05:30:59;;;;;;;45.35;16.48;;;;;;;;;;5108029;28;20043;-91
2023/12/09 05:33:42;;;;;;;34.65;14.60;;;;;;;;;;5107994;28;20478;-91
2023/12/09 05:36:19;;;;;;;38.28;15.38;;;;;;;;;;5108211;28;20050;-90
2023/12/09 05:38:47;;;;;;;42.72;15.50;;;;;;;;;;5104800;28;20111;-90
2023/12/09 05:41:17;;;;;;;38.80;14.90;;;;;;;;;;5106016;28;20055;-91
2023/12/09 05:43:47;;;;;;;41.20;14.82;;;;;;;;;;5106010;28;20048;-90
2023/12/09 05:46:20;;;;;;;44.33;16.67;;;;;;;;;;5105809;28;20127;-91
2023/12/09 05:48:50;;;;;;;33.75;14.85;;;;;;;;;;5106033;28;20058;-91
2023/12/09 05:54:56;;;;;;;39.83;14.45;;;;;;;;;;5124232;28;20045;-92
2023/12/09 05:57:29;;;;;;;41.00;17.10;;;;;;;;;;5126047;28;20060;-91
2023/12/09 06:00:02;;;;;;;47.45;15.45;;;;;;;;;;5121287;28;20093;-91
2023/12/09 06:02:43;;;;;;;36.92;14.48;;;;;;;;;;5109092;28;20435;-91
2023/12/09 06:05:16;;;;;;;41.50;14.90;;;;;;;;;;5109863;28;20048;-91
2023/12/09 06:07:45;;;;;;;33.80;13.63;;;;;;;;;;5113702;28;20158;-92
2023/12/09 06:10:27;;;;;;;35.55;13.27;;;;;;;;;;5109301;28;20071;-91
2023/12/09 06:13:08;;;;;;;44.25;14.82;;;;;;;;;;5103907;28;20068;-92
2023/12/09 06:15:42;;;;;;;38.50;14.30;;;;;;;;;;5152371;22;20052;-91
2023/12/09 06:18:30;;;;;;;27.95;12.93;;;;;;;;;;5088297;28;20104;-90
2023/12/09 06:21:21;;;;;;;39.15;12.80;;;;;;;;;;5085962;28;20304;-91
2023/12/09 06:24:04;;;;;;;43.67;13.25;;;;;;;;;;5088249;28;20028;-92
2023/12/09 06:26:46;;;;;;;30.13;12.90;;;;;;;;;;5092968;28;20193;-91
2023/12/09 06:29:28;;;;;;;31.40;13.05;;;;;;;;;;5084316;28;20143;-92
2023/12/09 06:32:13;;;;;;;29.98;12.60;;;;;;;;;;5088552;28;20056;-91
2023/12/09 06:34:43;;;;;;;35.70;12.27;;;;;;;;;;5087364;28;20111;-91
2023/12/09 06:37:24;;;;;;;38.85;12.48;;;;;;;;;;5086077;28;20465;-91
2023/12/09 06:39:55;;;;;;;28.92;12.57;;;;;;;;;;5090267;28;20067;-91
2023/12/09 06:42:29;;;;;;;35.40;13.00;;;;;;;;;;5087176;28;20059;-91
2023/12/09 06:45:13;;;;;;;30.83;12.07;;;;;;;;;;5085860;28;20340;-91
2023/12/09 06:47:45;;;;;;;40.17;12.32;;;;;;;;;;5089366;28;20056;-90
2023/12/09 06:50:23;;;;;;;29.98;11.77;;;;;;;;;;5088138;28;20174;-91
2023/12/09 06:53:04;;;;;;;40.80;12.77;;;;;;;;;;5088486;28;20044;-91
2023/12/09 06:55:47;;;;;;;29.85;12.30;;;;;;;;;;5087634;28;20365;-92
2023/12/09 06:58:18;;;;;;;28.52;11.52;;;;;;;;;;5087018;28;20048;-91
2023/12/09 07:01:01;;;;;;;33.53;11.20;;;;;;;;;;5086366;28;20270;-92
2023/12/09 07:03:30;;;;;;;31.00;11.85;;;;;;;;;;5088236;28;20120;-91
2023/12/09 07:06:01;;;;;;;29.85;12.15;;;;;;;;;;5087634;28;20294;-91
2023/12/09 07:13:40;;;;;;;30.73;11.60;;;;;;;;;;5459276;22;20469;-90
2023/12/09 07:16:10;;;;;;;28.52;10.90;;;;;;;;;;5091407;28;20090;-91
2023/12/09 07:18:43;;;;;;;34.83;11.93;;;;;;;;;;5090166;28;20054;-91
2023/12/09 07:21:14;;;;;;;31.65;10.95;;;;;;;;;;5087991;28;20070;-90
2023/12/09 07:23:56;;;;;;;31.48;10.60;;;;;;;;;;5106233;28;20040;-92
2023/12/09 07:26:38;;;;;;;27.40;10.98;;;;;;;;;;5090178;28;20316;-90
2023/12/09 07:29:07;;;;;;;34.70;11.50;;;;;;;;;;5088933;28;20064;-91
2023/12/09 07:31:38;;;;;;;32.60;11.02;;;;;;;;;;5092119;28;20050;-91
2023/12/09 07:34:20;;;;;;;41.42;12.05;;;;;;;;;;5109887;28;20113;-91
2023/12/09 07:36:52;;;;;;;31.17;11.20;;;;;;;;;;5094656;28;20051;-91
2023/12/09 07:39:24;;;;;;;19.92;9.88;;;;;;;;;;5095987;28;20133;-91
2023/12/09 07:42:08;;;;;;;25.42;8.90;;;;;;;;;;5108591;28;20059;-91
2023/12/09 07:44:40;;;;;;;36.45;11.85;;;;;;;;;;5106789;28;20443;-92
2023/12/09 07:47:21;;;;;;;31.33;9.27;;;;;;;;;;5091173;28;20040;-91
2023/12/09 07:49:51;;;;;;;22.90;9.48;;;;;;;;;;5091694;28;20051;-91
2023/12/09 07:52:32;;;;;;;34.45;11.25;;;;;;;;;;5094666;28;20073;-91
2023/12/09 07:55:02;;;;;;;29.65;9.50;;;;;;;;;;5092966;28;20060;-91
2023/12/09 07:57:43;;;;;;;27.70;9.00;;;;;;;;;;5091802;28;20048;-90
2023/12/09 08:00:27;;;;;;;22.20;8.32;;;;;;;;;;5092350;28;20053;-93
2023/12/09 08:02:56;;;;;;;35.90;8.75;;;;;;;;;;5091819;28;20078;-91
2023/12/09 08:05:38;;;;;;;28.17;8.82;;;;;;;;;;5094215;28;20055;-91
2023/12/09 08:08:10;;;;;;;32.58;8.15;;;;;;;;;;5097888;28;20062;-92
2023/12/09 08:10:52;;;;;;;21.67;9.27;;;;;;;;;;5098936;28;20048;-89
2023/12/09 08:13:34;;;;;;;25.10;8.73;;;;;;;;;;5091573;28;20396;-90
2023/12/09 08:16:02;;;;;;;22.67;7.30;;;;;;;;;;5090297;28;20048;-89
2023/12/09 08:18:44;;;;;;;19.10;6.50;;;;;;;;;;5092832;28;20056;-90
2023/12/09 08:21:27;;;;;;;15.98;6.60;;;;;;;;;;5087710;28;20064;-90
2023/12/09 08:24:08;;;;;;;19.75;7.28;;;;;;;;;;5087896;28;20322;-89
2023/12/09 08:26:52;;;;;;;15.77;6.93;;;;;;;;;;5090290;28;20043;-90
2023/12/09 08:29:32;;;;;;;14.77;7.15;;;;;;;;;;5086819;28;20047;-91
2023/12/09 08:32:03;;;;;;;22.90;5.75;;;;;;;;;;5087682;28;20102;-88
2023/12/09 08:34:47;;;;;;;16.77;5.50;;;;;;;;;;5084603;28;20044;-90
2023/12/09 08:37:29;;;;;;;13.68;5.93;;;;;;;;;;5080401;28;20127;-91
2023/12/09 08:40:16;;;;;;;26.17;6.95;;;;;;;;;;5079335;28;20033;-90
2023/12/09 08:42:57;;;;;;;18.20;5.97;;;;;;;;;;5079561;28;20100;-90
2023/12/09 08:45:40;;;;;;;31.25;7.05;;;;;;;;;;5077699;28;20083;-90
2023/12/09 08:48:23;;;;;;;21.40;5.07;;;;;;;;;;5080900;28;20073;-90
2023/12/09 08:51:06;;;;;;;17.15;6.03;;;;;;;;;;5078679;28;20036;-89
2023/12/09 08:53:47;;;;;;;14.60;5.38;;;;;;;;;;5077493;28;20052;-90
2023/12/09 08:56:28;;;;;;;15.88;5.05;;;;;;;;;;5074527;28;20076;-90
2023/12/09 08:59:10;;;;;;;24.83;6.07;;;;;;;;;;5076012;28;20079;-91
2023/12/09 10:02:53;;;;;;;11.20;2.67;;;;;;;;;;5132279;23;20058;-88
2023/12/09 10:05:43;;;;;;;8.13;2.88;;;;;;;;;;4930507;29;20087;-88
2023/12/09 10:08:23;;;;;;;7.47;2.00;;;;;;;;;;4912778;29;20052;-89
2023/12/09 10:11:08;;;;;;;7.30;2.35;;;;;;;;;;4943508;29;20071;-89
2023/12/09 10:13:50;;;;;;;5.72;2.22;;;;;;;;;;4942758;29;20044;-89
2023/12/09 10:16:33;;;;;;;14.25;2.83;;;;;;;;;;4943139;29;20116;-90
2023/12/09 10:19:12;;;;;;;13.80;2.75;;;;;;;;;;4947160;29;20051;-91
2023/12/09 10:21:54;;;;;;;7.47;1.85;;;;;;;;;;4946599;29;20080;-92
2023/12/09 10:24:35;;;;;;;7.15;1.85;;;;;;;;;;4945189;29;20100;-92
2023/12/09 10:27:20;;;;;;;10.18;2.42;;;;;;;;;;4945564;29;20115;-91
2023/12/09 10:33:17;;;;;;;6.60;2.10;;;;;;;;;;4945364;29;20141;-91
2023/12/09 10:35:57;;;;;;;15.23;2.58;;;;;;;;;;4942494;29;20047;-90
2023/12/09 10:38:43;;;;;;;12.40;2.53;;;;;;;;;;4944610;29;20051;-91
2023/12/09 10:41:16;;;;;;;4.72;1.70;;;;;;;;;;4947688;29;20043;-91
2023/12/09 10:43:58;;;;;;;4.75;1.92;;;;;;;;;;4973801;23;20063;-90
2023/12/09 10:49:14;;;;;;;10.27;2.10;;;;;;;;;;4958779;23;20064;-91
2023/12/09 10:51:45;;;;;;;5.80;1.52;;;;;;;;;;4926696;29;20048;-92
2023/12/09 10:54:23;;;;;;;10.27;1.83;;;;;;;;;;4913299;29;20060;-92
2023/12/09 10:56:58;;;;;;;11.75;1.75;;;;;;;;;;4913949;29;20056;-91
2023/12/09 11:00:09;;;;;;;9.20;1.50;;;;;;;;;;4916191;28;20044;-92
2023/12/09 14:04:24;;;;;;;6.20;2.58;;;;;;;;;;4946951;29;20138;-90
2023/12/09 14:07:02;;;;;;;4.45;2.50;;;;;;;;;;4947097;29;20051;-92
2023/12/09 14:13:02;;;;;;;5.47;2.45;;;;;;;;;;5065497;23;20071;-91
2023/12/09 14:15:36;;;;;;;7.40;3.10;;;;;;;;;;4945786;29;20062;-92
2023/12/09 14:18:09;;;;;;;10.05;3.63;;;;;;;;;;4946309;29;20062;-92
2023/12/09 14:20:49;;;;;;;9.82;2.65;;;;;;;;;;4947462;29;20035;-91
2023/12/09 14:23:33;;;;;;;4.80;2.25;;;;;;;;;;4942056;29;20063;-92
2023/12/09 14:26:04;;;;;;;13.73;4.30;;;;;;;;;;4945375;29;20570;-92
2023/12/09 14:28:34;;;;;;;16.77;5.57;;;;;;;;;;4943836;29;20479;-92
2023/12/09 14:31:06;;;;;;;5.35;1.95;;;;;;;;;;4947058;29;20055;-92
2023/12/09 14:36:54;;;;;;;9.55;2.90;;;;;;;;;;4894920;29;20055;-90
2023/12/09 14:39:29;;;;;;;7.45;2.45;;;;;;;;;;4904385;29;20075;-93
2023/12/09 14:42:10;;;;;;;9.82;2.72;;;;;;;;;;4901966;29;20049;-92
2023/12/09 14:44:42;;;;;;;12.27;2.33;;;;;;;;;;4903378;29;20092;-92
2023/12/09 14:47:15;;;;;;;10.13;2.35;;;;;;;;;;4903367;29;20061;-92
2023/12/09 14:49:48;;;;;;;4.88;1.90;;;;;;;;;;4904045;29;20063;-91
2023/12/09 14:52:30;;;;;;;6.07;2.63;;;;;;;;;;4900554;29;20204;-91
2023/12/09 14:55:07;;;;;;;5.85;2.25;;;;;;;;;;4903719;29;20053;-91
2023/12/09 14:57:56;;;;;;;6.97;2.85;;;;;;;;;;4894372;29;20113;-91
2023/12/09 15:00:24;;;;;;;6.78;2.38;;;;;;;;;;4911750;29;20308;-92
2023/12/09 15:03:06;;;;;;;12.70;2.63;;;;;;;;;;4906180;29;20033;-92
2023/12/09 15:05:46;;;;;;;6.72;2.50;;;;;;;;;;4900358;29;20100;-91
2023/12/09 15:08:21;;;;;;;8.77;1.95;;;;;;;;;;4904335;29;20581;-92
2023/12/09 15:11:02;;;;;;;3.40;2.10;;;;;;;;;;4902649;29;20061;-91
2023/12/09 15:13:35;;;;;;;6.80;2.20;;;;;;;;;;4902045;29;20153;-92
2023/12/09 15:18:56;;;;;;;5.65;2.42;;;;;;;;;;4946332;27;20043;-92
2023/12/09 15:21:36;;;;;;;6.43;2.17;;;;;;;;;;4937877;28;20115;-92
2023/12/09 15:24:10;;;;;;;11.50;2.58;;;;;;;;;;4933379;29;20051;-92
2023/12/09 15:26:51;;;;;;;3.97;2.40;;;;;;;;;;4928931;29;20178;-92
2023/12/09 15:29:27;;;;;;;;;;;;;;;;;;4931766;28;20063;-91
2023/12/09 15:32:05;;;;;;;3.05;2.33;;;;;;;;;;4930729;28;19910;-91
2023/12/09 15:34:49;;;;;;;13.07;2.72;;;;;;;;;;4928465;28;20055;-91
2023/12/09 15:37:30;;;;;;;6.78;2.42;;;;;;;;;;4928504;29;20051;-92
2023/12/09 15:40:02;;;;;;;8.80;2.47;;;;;;;;;;4928847;29;20122;-92
2023/12/09 15:42:44;;;;;;;7.50;2.58;;;;;;;;;;4928833;28;20058;-92
2023/12/09 15:45:17;;;;;;;7.00;1.75;;;;;;;;;;4927755;28;20048;-91
2023/12/09 15:47:59;;;;;;;11.70;2.83;;;;;;;;;;4930353;29;20086;-93
2023/12/09 15:50:45;;;;;;;16.02;3.05;;;;;;;;;;4944861;28;20083;-91
2023/12/09 15:53:20;;;;;;;8.45;3.15;;;;;;;;;;4930120;28;20091;-92
2023/12/09 15:58:31;;;;;;;11.88;3.05;;;;;;;;;;4980509;23;20080;-93
2023/12/09 16:01:01;;;;;;;5.45;2.15;;;;;;;;;;4908239;29;20218;-92
2023/12/09 16:03:34;;;;;;;9.55;2.85;;;;;;;;;;4909466;29;20100;-92
2023/12/09 16:06:10;;;;;;;;;;;;;;;;;;4911612;29;20616;-92
2023/12/09 16:08:41;;;;;;;7.03;1.88;;;;;;;;;;4912207;29;19957;-92
2023/12/09 16:11:13;;;;;;;7.85;2.58;;;;;;;;;;4925075;29;20063;-93
2023/12/09 16:13:42;;;;;;;6.45;2.40;;;;;;;;;;4908366;29;20056;-92
2023/12/09 16:16:19;;;;;;;4.72;2.17;;;;;;;;;;4925341;29;20052;-92
2023/12/09 16:19:01;;;;;;;9.52;3.85;;;;;;;;;;4925553;29;20036;-92
2023/12/09 16:21:36;;;;;;;5.00;2.05;;;;;;;;;;4916656;29;20068;-91
2023/12/09 16:24:04;;;;;;;8.48;3.22;;;;;;;;;;5092040;23;20056;-93
2023/12/09 16:26:33;;;;;;;14.25;2.90;;;;;;;;;;4945014;28;20062;-92
2023/12/09 16:29:05;;;;;;;9.65;2.75;;;;;;;;;;4944754;29;20066;-93
2023/12/09 16:31:34;;;;;;;8.10;2.20;;;;;;;;;;5005589;23;20055;-92
2023/12/09 16:34:03;;;;;;;7.90;1.85;;;;;;;;;;4926356;29;20417;-93
2023/12/09 16:36:35;;;;;;;8.38;2.47;;;;;;;;;;4942093;29;20608;-91
2023/12/09 16:39:16;;;;;;;5.38;2.25;;;;;;;;;;4945479;29;20506;-93
2023/12/09 16:41:58;;;;;;;7.07;2.80;;;;;;;;;;4975171;23;20064;-93
2023/12/09 16:44:32;;;;;;;7.90;3.05;;;;;;;;;;4945239;29;20188;-94
2023/12/09 16:47:03;;;;;;;6.13;2.55;;;;;;;;;;4945939;29;20169;-92
2023/12/09 16:49:32;;;;;;;8.98;3.13;;;;;;;;;;4948587;29;20119;-94
2023/12/09 16:52:13;;;;;;;5.38;2.58;;;;;;;;;;4946865;29;20148;-92
2023/12/09 16:54:45;;;;;;;9.30;3.38;;;;;;;;;;4949877;29;20055;-92
2023/12/09 16:57:20;;;;;;;12.70;3.85;;;;;;;;;;4947226;29;20048;-93
2023/12/09 16:59:48;;;;;;;6.43;2.08;;;;;;;;;;4945214;29;20435;-93
2023/12/09 17:02:18;;;;;;;9.52;2.40;;;;;;;;;;4945068;29;20047;-93
2023/12/09 17:04:47;;;;;;;14.90;3.42;;;;;;;;;;4945408;29;20056;-93
2023/12/09 17:07:19;;;;;;;6.35;2.72;;;;;;;;;;4970619;23;20129;-92
2023/12/09 17:09:51;;;;;;;11.48;3.22;;;;;;;;;;4926822;29;20107;-92
2023/12/09 17:12:25;;;;;;;6.70;2.80;;;;;;;;;;4928344;29;20071;-92
2023/12/09 17:14:58;;;;;;;11.68;2.80;;;;;;;;;;4925217;29;20062;-92
2023/12/09 17:17:36;;;;;;;8.60;2.00;;;;;;;;;;4925915;29;20044;-92
2023/12/09 17:20:05;;;;;;;7.60;3.85;;;;;;;;;;4924477;29;20129;-93
2023/12/09 17:22:48;;;;;;;11.48;3.30;;;;;;;;;;4922014;29;20083;-93
2023/12/09 17:25:22;;;;;;;13.35;3.05;;;;;;;;;;4927225;29;20064;-93
2023/12/09 17:27:50;;;;;;;6.93;2.97;;;;;;;;;;4927406;29;20040;-93
2023/12/09 17:30:19;;;;;;;16.00;2.90;;;;;;;;;;4925692;29;20056;-92
2023/12/09 17:32:49;;;;;;;9.82;3.15;;;;;;;;;;4926769;29;20067;-92
2023/12/09 17:35:28;;;;;;;12.05;3.53;;;;;;;;;;4927513;29;21106;-93
2023/12/09 17:37:57;;;;;;;4.53;2.63;;;;;;;;;;4941815;29;20127;-91
2023/12/09 17:40:25;;;;;;;9.05;3.20;;;;;;;;;;4924207;29;20095;-93
2023/12/09 17:42:53;;;;;;;8.48;2.85;;;;;;;;;;4941435;28;20115;-93
2023/12/09 17:45:22;;;;;;;13.73;4.43;;;;;;;;;;4926167;29;20052;-91
2023/12/09 17:47:51;;;;;;;8.68;3.58;;;;;;;;;;4929421;29;20150;-91
2023/12/09 17:50:19;;;;;;;9.70;2.53;;;;;;;;;;4928199;29;20436;-93
2023/12/09 17:52:49;;;;;;;9.98;4.45;;;;;;;;;;4926911;29;20071;-93
2023/12/09 17:55:24;;;;;;;10.27;4.45;;;;;;;;;;4925888;29;20076;-93
2023/12/09 17:58:04;;;;;;;10.13;2.88;;;;;;;;;;4927573;29;20256;-92
2023/12/09 18:00:39;;;;;;;9.90;3.03;;;;;;;;;;4944646;29;20054;-93
2023/12/09 18:03:23;;;;;;;8.48;3.15;;;;;;;;;;4929445;29;20082;-93
2023/12/09 18:05:52;;;;;;;6.95;3.28;;;;;;;;;;4931103;29;20080;-92
2023/12/09 18:08:24;;;;;;;7.35;3.50;;;;;;;;;;4929152;29;20134;-93
2023/12/09 18:10:52;;;;;;;7.95;3.70;;;;;;;;;;4930820;29;20064;-92
2023/12/09 18:13:19;;;;;;;5.32;3.17;;;;;;;;;;4930450;29;19951;-92
2023/12/09 18:15:49;;;;;;;8.10;3.60;;;;;;;;;;4931236;29;20120;-94
2023/12/09 18:18:20;;;;;;;5.03;2.72;;;;;;;;;;4932373;29;20040;-93
2023/12/09 18:20:48;;;;;;;9.00;2.78;;;;;;;;;;4935625;29;20103;-93
2023/12/09 18:23:25;;;;;;;9.55;3.22;;;;;;;;;;4932654;29;20095;-93
2023/12/09 18:25:53;;;;;;;4.28;1.92;;;;;;;;;;4932184;29;20052;-93
2023/12/09 18:28:22;;;;;;;13.00;2.83;;;;;;;;;;4931495;29;20077;-92
2023/12/09 18:31:03;;;;;;;11.43;2.92;;;;;;;;;;4930905;29;20107;-93
2023/12/09 18:33:38;;;;;;;9.52;3.92;;;;;;;;;;4931661;29;20036;-92
2023/12/09 18:36:08;;;;;;;2.92;2.00;;;;;;;;;;4935022;29;20047;-92
2023/12/09 18:38:38;;;;;;;13.20;3.83;;;;;;;;;;4936123;29;20044;-93
2023/12/09 18:41:06;;;;;;;14.65;3.42;;;;;;;;;;4932986;29;20040;-93
2023/12/09 18:43:43;;;;;;;8.07;2.95;;;;;;;;;;4932239;29;20048;-93
2023/12/09 18:46:13;;;;;;;8.57;2.80;;;;;;;;;;4933608;29;20040;-93
2023/12/09 18:48:50;;;;;;;5.38;2.20;;;;;;;;;;4931723;29;20116;-93
2023/12/09 18:51:19;;;;;;;9.82;3.10;;;;;;;;;;4931139;29;20111;-93
2023/12/09 18:53:51;;;;;;;4.38;2.55;;;;;;;;;;4932006;29;20118;-91
2023/12/09 18:56:20;;;;;;;6.28;3.60;;;;;;;;;;4930906;29;20060;-92
2023/12/09 18:58:51;;;;;;;12.80;3.28;;;;;;;;;;4929962;29;20076;-92
2023/12/09 19:01:23;;;;;;;16.13;4.75;;;;;;;;;;4930093;29;20071;-92
2023/12/09 19:03:51;;;;;;;3.65;3.13;;;;;;;;;;4932300;29;20061;-92
2023/12/09 19:06:19;;;;;;;9.95;3.88;;;;;;;;;;4929407;29;20055;-92
2023/12/09 19:08:50;;;;;;;10.82;3.75;;;;;;;;;;4943446;29;20052;-92
2023/12/09 19:11:36;;;;;;;3.08;2.00;;;;;;;;;;4966915;23;20062;-93
2023/12/09 19:14:03;;;;;;;17.52;4.80;;;;;;;;;;4951709;28;20039;-94
2023/12/09 19:52:08;;;;;;;14.15;4.95;;;;;;;;;;4892742;29;20053;-91
2023/12/09 20:01:45;;;;;;;8.80;3.70;;;;;;;;;;4869024;29;20044;-92
2023/12/09 20:04:23;;;;;;;12.63;3.72;;;;;;;;;;4855223;29;20106;-92
2023/12/09 20:07:04;;;;;;;5.07;2.95;;;;;;;;;;4852821;29;20110;-92
2023/12/09 20:09:48;;;;;;;17.92;3.80;;;;;;;;;;4854508;29;20033;-92
2023/12/09 20:12:33;;;;;;;7.15;3.75;;;;;;;;;;4853614;29;20068;-92
2023/12/09 20:15:17;;;;;;;8.52;4.57;;;;;;;;;;4871808;29;20058;-92
2023/12/09 20:17:50;;;;;;;10.13;4.32;;;;;;;;;;4855270;29;20038;-92
2023/12/09 20:20:31;;;;;;;7.28;3.08;;;;;;;;;;4855100;29;20114;-92
2023/12/09 20:23:12;;;;;;;6.93;2.90;;;;;;;;;;4866461;29;20109;-91
2023/12/09 20:25:53;;;;;;;7.45;3.90;;;;;;;;;;4854440;29;20061;-91
2023/12/09 20:28:34;;;;;;;6.28;3.47;;;;;;;;;;4853968;29;20119;-92
2023/12/09 20:31:07;;;;;;;7.50;2.63;;;;;;;;;;4871829;29;20037;-92
2023/12/09 20:33:51;;;;;;;5.57;3.58;;;;;;;;;;4858740;29;20060;-92
2023/12/09 20:36:35;;;;;;;7.15;3.42;;;;;;;;;;4855468;29;20037;-91
2023/12/09 20:39:16;;;;;;;5.07;2.30;;;;;;;;;;4855254;29;20052;-92
2023/12/09 20:41:58;;;;;;;4.18;2.97;;;;;;;;;;4873484;29;20418;-92
2023/12/09 20:44:39;;;;;;;4.95;2.90;;;;;;;;;;4856361;29;20081;-92
2023/12/09 20:47:20;;;;;;;4.10;2.35;;;;;;;;;;4855030;29;20461;-92
2023/12/09 20:50:17;;;;;;;5.30;3.15;;;;;;;;;;4863087;29;20057;-93
2023/12/09 20:52:58;;;;;;;4.00;1.80;;;;;;;;;;4901779;29;20322;-92
2023/12/09 20:55:41;;;;;;;3.28;2.22;;;;;;;;;;4889224;29;20092;-92
2023/12/09 20:58:13;;;;;;;5.60;2.72;;;;;;;;;;4888825;29;20089;-92
2023/12/09 21:00:58;;;;;;;7.32;3.47;;;;;;;;;;4889491;29;20048;-92
2023/12/09 21:03:32;;;;;;;8.18;2.75;;;;;;;;;;4890810;29;20061;-92
2023/12/09 21:06:12;;;;;;;6.43;3.47;;;;;;;;;;4901577;29;20044;-91
2023/12/09 21:08:53;;;;;;;5.15;2.33;;;;;;;;;;4887493;29;20116;-93
2023/12/09 21:11:25;;;;;;;6.95;3.50;;;;;;;;;;4888591;29;20057;-91
2023/12/09 21:14:06;;;;;;;12.25;3.17;;;;;;;;;;4886213;29;20048;-92
2023/12/09 21:16:47;;;;;;;6.30;3.53;;;;;;;;;;4885819;29;20056;-92
2023/12/09 21:19:33;;;;;;;6.20;3.80;;;;;;;;;;4885830;29;20092;-92
2023/12/09 21:22:16;;;;;;;13.10;4.43;;;;;;;;;;4885857;29;20029;-93